Time;durP1;ratioP1;P1;durP2;ratioP2;P2;SDS_P1;SDS_P2;PMS_P1;PMS_P2;Temp;Humidity;BMP_temperature;BMP_pressure;BME280_temperature;BME280_humidity;BME280_pressure;Samples;Min_cycle;Max_cycle;Signal;HPM_P1;HPM_P2
2021/01/19 00:01:08;;;;;;;0.73;0.68;;;19.70;41.90;;;;;;5012517;28;20121;-65
2021/01/19 00:03:34;;;;;;;1.58;0.70;;;19.70;41.90;;;;;;5011811;28;20488;-66
2021/01/19 00:06:00;;;;;;;1.13;0.60;;;19.70;42.00;;;;;;5011965;28;20095;-65
2021/01/19 00:08:25;;;;;;;1.58;0.70;;;19.60;42.00;;;;;;5014368;28;20400;-66
2021/01/19 00:10:51;;;;;;;0.85;0.80;;;19.60;42.10;;;;;;5015297;28;20108;-65
2021/01/19 00:13:20;;;;;;;0.80;0.60;;;19.60;42.10;;;;;;5010974;28;20030;-65
2021/01/19 00:15:49;;;;;;;0.55;0.55;;;19.60;42.20;;;;;;5013087;28;20064;-63
2021/01/19 00:18:15;;;;;;;1.02;0.73;;;19.60;42.10;;;;;;5017348;28;20484;-64
2021/01/19 00:20:40;;;;;;;0.80;0.80;;;19.60;42.20;;;;;;5001701;28;20044;-66
2021/01/19 00:23:06;;;;;;;0.65;0.65;;;19.60;42.20;;;;;;4982734;28;20036;-66
2021/01/19 00:25:31;;;;;;;0.90;0.70;;;19.60;42.30;;;;;;4981368;28;20041;-65
2021/01/19 00:27:57;;;;;;;0.60;0.60;;;19.50;42.30;;;;;;5012002;28;20022;-67
2021/01/19 00:30:22;;;;;;;0.60;0.60;;;19.50;42.30;;;;;;5020662;28;20034;-66
2021/01/19 00:32:48;;;;;;;1.10;0.70;;;19.50;42.30;;;;;;5015415;28;20618;-66
2021/01/19 00:35:14;;;;;;;0.50;0.50;;;19.50;42.40;;;;;;5018102;28;21537;-65
2021/01/19 00:37:39;;;;;;;0.90;0.60;;;19.50;42.30;;;;;;5017881;28;20025;-65
2021/01/19 00:40:05;;;;;;;1.85;0.73;;;19.50;42.50;;;;;;5010393;28;20075;-65
2021/01/19 00:42:31;;;;;;;0.60;0.60;;;19.40;42.50;;;;;;5019188;28;20034;-64
2021/01/19 00:44:56;;;;;;;0.73;0.60;;;19.50;42.50;;;;;;5017823;28;20038;-66
2021/01/19 00:47:22;;;;;;;0.55;0.55;;;19.50;42.50;;;;;;5009346;28;20034;-65
2021/01/19 00:49:47;;;;;;;0.75;0.60;;;19.50;42.50;;;;;;5022421;28;20034;-65
2021/01/19 00:52:13;;;;;;;1.00;0.40;;;19.40;42.50;;;;;;5014177;28;21198;-66
2021/01/19 00:54:38;;;;;;;0.98;0.57;;;19.40;42.60;;;;;;5013926;28;20057;-66
2021/01/19 00:57:04;;;;;;;0.70;0.57;;;19.40;42.70;;;;;;5015391;28;20030;-66
2021/01/19 00:59:29;;;;;;;1.35;0.60;;;19.40;42.70;;;;;;5017656;28;20181;-64
2021/01/19 01:01:55;;;;;;;1.65;0.63;;;19.40;42.70;;;;;;5017928;28;20427;-65
2021/01/19 01:04:20;;;;;;;0.82;0.60;;;19.30;42.60;;;;;;5015688;28;20112;-65
2021/01/19 01:06:51;;;;;;;0.50;0.50;;;19.30;42.70;;;;;;5014344;28;20101;-64
2021/01/19 01:09:17;;;;;;;2.45;0.50;;;19.30;42.70;;;;;;5008612;28;20033;-65
2021/01/19 01:11:43;;;;;;;0.40;0.40;;;19.30;42.80;;;;;;5010871;28;20034;-64
2021/01/19 01:14:09;;;;;;;0.50;0.50;;;19.30;42.80;;;;;;5021995;28;20037;-64
2021/01/19 01:16:35;;;;;;;2.10;0.60;;;19.30;42.90;;;;;;5013706;28;20026;-64
2021/01/19 01:19:01;;;;;;;0.65;0.65;;;19.30;42.90;;;;;;4990538;28;20496;-65
2021/01/19 01:21:26;;;;;;;1.13;0.70;;;19.30;42.90;;;;;;5021247;28;20026;-64
2021/01/19 01:23:52;;;;;;;0.80;0.73;;;19.30;42.90;;;;;;5010058;28;20053;-65
2021/01/19 01:26:19;;;;;;;0.82;0.52;;;19.30;43.00;;;;;;5016620;28;20026;-65
2021/01/19 01:28:45;;;;;;;0.65;0.40;;;19.30;42.90;;;;;;5019926;28;20163;-64
2021/01/19 01:31:10;;;;;;;1.00;0.55;;;19.30;43.00;;;;;;5013987;28;20034;-65
2021/01/19 01:33:36;;;;;;;1.15;0.50;;;19.30;43.10;;;;;;5016169;28;20044;-64
2021/01/19 01:36:02;;;;;;;0.60;0.40;;;19.20;43.00;;;;;;5014076;28;20318;-64
2021/01/19 01:38:27;;;;;;;1.00;0.63;;;19.20;43.00;;;;;;5012582;28;20084;-65
2021/01/19 01:40:53;;;;;;;0.50;0.50;;;19.20;43.00;;;;;;5013708;28;20696;-65
2021/01/19 01:43:18;;;;;;;1.05;0.50;;;19.20;43.10;;;;;;4998854;28;20160;-64
2021/01/19 01:45:44;;;;;;;0.77;0.45;;;19.20;43.10;;;;;;5016923;28;20417;-64
2021/01/19 01:48:09;;;;;;;0.63;0.40;;;19.20;43.10;;;;;;5017166;28;20049;-65
2021/01/19 01:50:38;;;;;;;0.50;0.50;;;19.20;43.10;;;;;;5013930;28;20113;-65
2021/01/19 01:53:05;;;;;;;0.47;0.47;;;19.20;43.10;;;;;;4996111;28;20034;-64
2021/01/19 01:55:30;;;;;;;0.77;0.50;;;19.20;43.10;;;;;;4996701;28;20051;-63
2021/01/19 01:57:56;;;;;;;1.10;0.50;;;19.20;43.10;;;;;;5007534;28;20647;-65
2021/01/19 02:00:21;;;;;;;0.85;0.50;;;19.20;43.20;;;;;;5001742;28;20704;-65
2021/01/19 02:02:57;;;;;;;0.93;0.57;;;19.20;43.20;;;;;;5016600;28;20129;-64
2021/01/19 02:05:23;;;;;;;0.65;0.40;;;19.20;43.20;;;;;;4996092;28;20049;-64
2021/01/19 02:08:02;;;;;;;0.43;0.43;;;19.20;43.20;;;;;;4998919;28;20052;-64
2021/01/19 02:11:00;;;;;;;0.80;0.40;;;19.20;43.20;;;;;;4981583;28;20038;-65
2021/01/19 02:13:54;;;;;;;0.63;0.50;;;19.10;43.20;;;;;;4999794;28;20446;-64
2021/01/19 02:16:59;;;;;;;0.47;0.45;;;19.10;43.20;;;;;;4989634;28;20245;-64
2021/01/19 02:19:54;;;;;;;0.30;0.30;;;19.10;43.30;;;;;;4997157;28;20029;-64
2021/01/19 02:22:36;;;;;;;0.40;0.30;;;19.10;43.30;;;;;;4998974;28;20041;-63
2021/01/19 02:25:01;;;;;;;1.48;0.50;;;19.00;43.20;;;;;;5013274;28;20026;-63
2021/01/19 02:27:48;;;;;;;0.60;0.60;;;19.00;43.20;;;;;;5015041;28;20045;-62
2021/01/19 02:30:40;;;;;;;0.70;0.50;;;19.00;43.20;;;;;;5014530;28;20799;-62
2021/01/19 02:33:08;;;;;;;0.75;0.50;;;19.00;43.20;;;;;;5005662;28;20042;-65
2021/01/19 02:35:53;;;;;;;1.08;0.57;;;19.00;43.20;;;;;;5011719;28;20033;-64
2021/01/19 02:38:53;;;;;;;0.50;0.47;;;19.00;43.20;;;;;;5011987;28;20033;-63
2021/01/19 02:41:18;;;;;;;0.43;0.43;;;19.00;43.10;;;;;;4996588;28;20038;-64
2021/01/19 02:43:47;;;;;;;0.63;0.50;;;19.00;43.20;;;;;;4998304;28;20040;-64
2021/01/19 02:46:12;;;;;;;0.50;0.50;;;19.00;43.20;;;;;;4980857;28;20040;-62
2021/01/19 02:48:38;;;;;;;0.30;0.30;;;19.00;43.30;;;;;;5000561;28;20030;-66
2021/01/19 02:51:03;;;;;;;0.50;0.40;;;19.00;43.20;;;;;;5018139;28;20428;-63
2021/01/19 02:53:29;;;;;;;1.15;0.55;;;19.00;43.20;;;;;;5009973;28;20104;-63
2021/01/19 02:55:54;;;;;;;1.42;0.30;;;19.00;43.30;;;;;;4993146;28;20083;-65
2021/01/19 02:59:07;;;;;;;0.45;0.40;;;19.00;43.30;;;;;;4997489;28;20119;-64
2021/01/19 03:01:36;;;;;;;0.30;0.30;;;19.00;43.30;;;;;;4973505;28;20029;-65
2021/01/19 03:04:01;;;;;;;0.57;0.40;;;19.00;43.30;;;;;;4974884;28;20552;-65
2021/01/19 03:06:30;;;;;;;0.40;0.32;;;19.00;43.30;;;;;;4991932;28;20030;-65
2021/01/19 03:08:56;;;;;;;0.55;0.47;;;19.00;43.30;;;;;;5013676;28;20139;-64
2021/01/19 03:11:21;;;;;;;2.38;0.60;;;19.00;43.30;;;;;;5002731;28;20799;-65
2021/01/19 03:13:47;;;;;;;0.80;0.50;;;19.00;43.20;;;;;;4973799;28;20038;-65
2021/01/19 03:16:14;;;;;;;0.60;0.50;;;19.00;43.20;;;;;;5012664;28;20096;-64
2021/01/19 03:18:41;;;;;;;0.30;0.30;;;19.00;43.20;;;;;;5012268;28;20767;-66
2021/01/19 03:21:07;;;;;;;0.60;0.60;;;19.00;43.20;;;;;;5012143;28;20030;-64
2021/01/19 03:23:36;;;;;;;0.50;0.40;;;19.00;43.20;;;;;;5014948;28;20435;-65
2021/01/19 03:26:02;;;;;;;0.68;0.60;;;19.00;43.10;;;;;;5009710;28;20743;-64
2021/01/19 03:28:27;;;;;;;0.55;0.50;;;19.00;43.10;;;;;;5013421;28;20116;-63
2021/01/19 03:30:53;;;;;;;2.10;0.70;;;19.00;43.10;;;;;;5014881;28;20488;-65
2021/01/19 03:33:19;;;;;;;1.50;0.40;;;19.00;43.10;;;;;;5006286;28;20117;-65
2021/01/19 03:35:45;;;;;;;0.68;0.50;;;19.00;43.00;;;;;;5014952;28;20460;-65
2021/01/19 03:38:10;;;;;;;0.90;0.43;;;19.00;43.00;;;;;;5014199;28;20052;-65
2021/01/19 03:40:36;;;;;;;0.30;0.30;;;19.00;43.00;;;;;;5012823;28;20820;-64
2021/01/19 03:43:02;;;;;;;0.82;0.50;;;19.00;43.00;;;;;;5013570;28;20212;-64
2021/01/19 03:45:27;;;;;;;0.47;0.47;;;19.00;43.00;;;;;;5015144;28;20560;-65
2021/01/19 03:47:53;;;;;;;0.65;0.40;;;19.00;43.00;;;;;;5006696;28;20030;-65
2021/01/19 03:50:19;;;;;;;0.50;0.50;;;19.00;42.90;;;;;;5013810;28;20034;-64
2021/01/19 03:52:44;;;;;;;1.02;0.40;;;19.00;42.80;;;;;;5014747;28;20045;-64
2021/01/19 03:55:10;;;;;;;0.50;0.50;;;19.10;42.90;;;;;;5014079;28;20041;-63
2021/01/19 03:57:35;;;;;;;0.50;0.45;;;19.10;42.90;;;;;;5018301;28;20595;-64
2021/01/19 04:00:06;;;;;;;0.68;0.65;;;19.00;42.80;;;;;;5015950;28;20052;-65
2021/01/19 04:02:31;;;;;;;0.40;0.40;;;19.10;42.80;;;;;;5014667;28;20029;-64
2021/01/19 04:04:57;;;;;;;0.90;0.47;;;19.10;42.90;;;;;;5011158;28;20053;-65
2021/01/19 04:07:24;;;;;;;0.70;0.70;;;19.10;42.80;;;;;;5016661;28;20421;-65
2021/01/19 04:09:50;;;;;;;0.70;0.40;;;19.00;42.80;;;;;;5001419;28;20034;-65
2021/01/19 04:12:15;;;;;;;0.40;0.40;;;19.00;42.80;;;;;;5000582;28;20541;-64
2021/01/19 04:14:41;;;;;;;0.90;0.40;;;19.00;42.80;;;;;;5017260;28;20044;-65
2021/01/19 04:17:06;;;;;;;0.60;0.47;;;19.00;42.70;;;;;;5016975;28;20065;-62
2021/01/19 04:19:32;;;;;;;0.60;0.50;;;19.00;42.80;;;;;;5018045;28;20083;-64
2021/01/19 04:21:57;;;;;;;0.38;0.38;;;19.00;42.80;;;;;;5017644;28;20033;-65
2021/01/19 04:24:23;;;;;;;0.80;0.45;;;19.00;42.80;;;;;;5017666;28;20025;-65
2021/01/19 04:26:48;;;;;;;0.43;0.30;;;19.00;42.80;;;;;;5019383;28;20062;-63
2021/01/19 04:29:13;;;;;;;0.47;0.45;;;19.00;42.70;;;;;;5019108;28;20037;-65
2021/01/19 04:31:39;;;;;;;0.70;0.55;;;19.00;42.80;;;;;;5009478;28;20026;-64
2021/01/19 04:34:05;;;;;;;0.55;0.40;;;19.00;42.70;;;;;;5018094;28;20080;-63
2021/01/19 04:36:30;;;;;;;0.40;0.30;;;19.00;42.70;;;;;;5023648;28;20034;-64
2021/01/19 04:38:56;;;;;;;1.30;0.65;;;18.90;42.70;;;;;;5017927;28;20124;-62
2021/01/19 04:41:22;;;;;;;1.20;0.40;;;18.90;42.60;;;;;;5015869;28;20076;-64
2021/01/19 04:43:47;;;;;;;0.40;0.40;;;18.90;42.70;;;;;;4995103;28;20038;-65
2021/01/19 04:46:12;;;;;;;0.47;0.30;;;18.90;42.70;;;;;;4999307;28;20041;-65
2021/01/19 04:48:40;;;;;;;0.50;0.40;;;19.00;42.70;;;;;;4983975;28;20036;-64
2021/01/19 04:51:05;;;;;;;0.40;0.40;;;18.90;42.70;;;;;;4981969;28;20511;-64
2021/01/19 04:53:33;;;;;;;0.73;0.50;;;18.90;42.60;;;;;;4997640;28;20044;-64
2021/01/19 04:56:00;;;;;;;0.98;0.50;;;18.90;42.70;;;;;;5011426;28;20701;-64
2021/01/19 04:58:25;;;;;;;0.60;0.47;;;18.90;42.60;;;;;;4983600;28;20037;-66
2021/01/19 05:01:05;;;;;;;0.65;0.57;;;18.90;42.70;;;;;;5015448;28;20033;-65
2021/01/19 05:03:38;;;;;;;1.05;0.65;;;18.90;42.70;;;;;;5001837;28;20244;-66
2021/01/19 05:06:27;;;;;;;0.70;0.40;;;18.90;42.70;;;;;;4991669;28;20030;-67
2021/01/19 05:08:56;;;;;;;0.63;0.50;;;18.80;42.70;;;;;;5002461;28;20045;-66
2021/01/19 05:11:23;;;;;;;2.20;0.60;;;18.90;42.70;;;;;;4998034;28;20081;-65
2021/01/19 05:13:59;;;;;;;0.68;0.50;;;18.90;42.80;;;;;;4999380;28;20038;-66
2021/01/19 05:16:33;;;;;;;0.90;0.50;;;18.90;42.80;;;;;;5017441;28;20048;-67
2021/01/19 05:18:59;;;;;;;3.30;0.75;;;18.90;42.90;;;;;;5022552;28;20078;-66
2021/01/19 05:21:24;;;;;;;0.65;0.60;;;18.80;42.80;;;;;;5013466;28;20109;-66
2021/01/19 05:23:50;;;;;;;2.97;0.60;;;18.80;42.90;;;;;;5014532;28;20243;-66
2021/01/19 05:26:16;;;;;;;0.52;0.43;;;18.80;42.90;;;;;;5022703;28;20647;-65
2021/01/19 05:28:48;;;;;;;1.13;0.50;;;18.80;42.90;;;;;;5014284;28;20037;-67
2021/01/19 05:31:16;;;;;;;0.98;0.50;;;18.80;43.00;;;;;;4990423;28;20037;-67
2021/01/19 05:34:01;;;;;;;0.60;0.52;;;18.80;43.00;;;;;;4992173;28;20025;-67
2021/01/19 05:36:33;;;;;;;0.50;0.32;;;18.80;43.00;;;;;;5015897;28;20026;-67
2021/01/19 05:38:58;;;;;;;1.60;0.60;;;18.80;43.00;;;;;;4996101;28;20034;-67
2021/01/19 05:41:31;;;;;;;0.73;0.50;;;18.70;42.90;;;;;;5021492;28;20058;-67
2021/01/19 05:44:29;;;;;;;0.75;0.50;;;18.70;43.00;;;;;;5014044;28;20034;-68
2021/01/19 05:46:59;;;;;;;3.90;0.68;;;18.70;43.00;;;;;;4995586;28;20079;-63
2021/01/19 05:49:43;;;;;;;2.47;1.05;;;18.70;43.00;;;;;;4996976;28;20033;-66
2021/01/19 05:52:10;;;;;;;1.23;0.60;;;18.70;43.00;;;;;;5014871;28;20049;-66
2021/01/19 05:54:39;;;;;;;0.68;0.50;;;18.70;43.10;;;;;;5008945;28;20100;-66
2021/01/19 05:57:11;;;;;;;1.02;0.52;;;18.70;43.60;;;;;;5006440;28;20041;-65
2021/01/19 05:59:41;;;;;;;1.25;0.65;;;18.70;43.00;;;;;;5013288;28;20034;-66
2021/01/19 06:02:10;;;;;;;1.65;0.90;;;18.70;43.10;;;;;;4995904;28;20118;-64
2021/01/19 06:04:49;;;;;;;4.15;1.42;;;18.70;43.00;;;;;;5008605;28;20534;-64
2021/01/19 06:07:16;;;;;;;11.25;3.78;;;18.70;43.10;;;;;;4998934;28;20037;-63
2021/01/19 06:09:43;;;;;;;11.13;3.83;;;18.70;43.20;;;;;;4989485;28;20041;-65
2021/01/19 06:12:09;;;;;;;10.00;3.50;;;18.70;43.30;;;;;;5013942;28;20432;-63
2021/01/19 06:14:34;;;;;;;9.77;3.60;;;18.70;43.30;;;;;;5014984;28;20046;-65
2021/01/19 06:17:04;;;;;;;16.10;4.55;;;18.70;43.30;;;;;;5015639;28;20034;-65
2021/01/19 06:19:30;;;;;;;14.07;4.63;;;18.60;43.30;;;;;;4992252;28;20515;-65
2021/01/19 06:21:58;;;;;;;17.05;5.15;;;18.60;43.30;;;;;;5011848;28;20069;-67
2021/01/19 06:24:31;;;;;;;20.65;6.38;;;18.60;43.40;;;;;;5023303;28;20065;-65
2021/01/19 06:26:57;;;;;;;17.75;5.53;;;18.60;43.50;;;;;;4989438;28;20673;-64
2021/01/19 06:29:23;;;;;;;19.23;6.13;;;18.60;43.60;;;;;;5006400;28;20030;-65
2021/01/19 06:31:48;;;;;;;17.40;5.20;;;18.50;43.60;;;;;;5023640;28;20033;-66
2021/01/19 06:34:24;;;;;;;19.88;5.93;;;18.50;43.60;;;;;;4989693;28;20030;-65
2021/01/19 06:36:49;;;;;;;;;;;18.50;43.70;;;;;;4990659;28;20040;-65
2021/01/19 06:39:29;;;;;;;17.88;5.75;;;18.50;43.80;;;;;;5024078;28;19908;-66
2021/01/19 06:42:02;;;;;;;16.30;5.60;;;18.50;43.80;;;;;;5006971;28;20033;-65
2021/01/19 06:44:27;;;;;;;17.52;5.00;;;18.40;43.90;;;;;;4990425;28;20582;-65
2021/01/19 06:46:53;;;;;;;12.05;4.35;;;18.40;44.00;;;;;;4990562;28;20029;-65
2021/01/19 06:49:18;;;;;;;18.08;5.20;;;18.40;44.00;;;;;;4990731;28;20026;-65
2021/01/19 06:51:44;;;;;;;15.23;5.13;;;18.40;44.10;;;;;;4990288;28;20030;-64
2021/01/19 06:54:09;;;;;;;15.63;4.80;;;18.40;44.20;;;;;;4990759;28;20061;-64
2021/01/19 06:56:36;;;;;;;15.80;5.32;;;18.40;44.10;;;;;;4990251;28;20028;-66
2021/01/19 06:59:04;;;;;;;14.65;4.63;;;18.40;44.00;;;;;;5006687;28;20049;-63
2021/01/19 07:01:29;;;;;;;13.43;4.55;;;18.40;44.00;;;;;;4991083;28;20113;-65
2021/01/19 07:04:04;;;;;;;12.07;4.05;;;18.40;44.00;;;;;;5024737;28;20108;-66
2021/01/19 07:06:59;;;;;;;14.37;4.97;;;18.40;43.90;;;;;;5007262;28;20021;-66
2021/01/19 07:09:34;;;;;;;10.88;4.18;;;18.50;43.90;;;;;;4991417;28;20630;-64
2021/01/19 07:12:05;;;;;;;12.23;4.13;;;18.50;43.80;;;;;;5023663;28;20079;-66
2021/01/19 07:15:18;;;;;;;10.10;3.65;;;18.50;43.80;;;;;;5006439;28;20060;-66
2021/01/19 07:18:03;;;;;;;10.30;4.00;;;18.50;43.70;;;;;;4970884;28;20057;-65
2021/01/19 07:20:30;;;;;;;10.80;3.88;;;18.60;43.70;;;;;;4982542;28;20061;-66
2021/01/19 07:22:55;;;;;;;12.82;4.07;;;18.60;43.60;;;;;;4997927;28;20760;-64
2021/01/19 07:25:21;;;;;;;6.90;3.33;;;18.70;43.60;;;;;;5026695;28;20053;-66
2021/01/19 07:27:47;;;;;;;7.15;3.80;;;18.70;43.50;;;;;;5009762;28;20049;-66
2021/01/19 07:30:13;;;;;;;13.70;3.92;;;18.70;43.40;;;;;;4994240;28;20040;-66
2021/01/19 07:32:38;;;;;;;10.02;3.53;;;18.70;43.30;;;;;;4977972;28;20563;-66
2021/01/19 07:35:06;;;;;;;8.63;3.53;;;18.80;43.30;;;;;;5010055;28;20091;-65
2021/01/19 07:37:33;;;;;;;9.32;3.63;;;18.80;43.30;;;;;;5009921;28;20506;-68
2021/01/19 07:39:59;;;;;;;8.45;3.13;;;18.80;43.20;;;;;;5028090;28;20044;-65
2021/01/19 07:42:24;;;;;;;10.15;4.28;;;18.90;43.20;;;;;;5010009;28;20404;-64
2021/01/19 07:44:57;;;;;;;8.80;3.25;;;19.00;43.20;;;;;;5010310;28;20764;-65
2021/01/19 07:47:38;;;;;;;8.85;3.53;;;19.00;43.20;;;;;;4994105;28;20091;-65
2021/01/19 07:50:05;;;;;;;8.88;3.22;;;19.00;43.10;;;;;;5012146;28;20504;-65
2021/01/19 07:52:38;;;;;;;9.52;4.25;;;19.00;43.00;;;;;;5010415;28;20029;-64
2021/01/19 07:55:17;;;;;;;5.15;2.70;;;19.00;43.00;;;;;;5004135;28;20034;-66
2021/01/19 07:57:44;;;;;;;7.78;2.83;;;19.00;43.00;;;;;;5007475;28;20030;-66
2021/01/19 08:00:11;;;;;;;4.53;2.70;;;19.10;43.00;;;;;;5007078;28;20038;-66
2021/01/19 08:02:36;;;;;;;6.40;2.83;;;19.10;42.90;;;;;;5007752;28;20038;-66
2021/01/19 08:05:06;;;;;;;7.30;3.10;;;19.10;42.90;;;;;;5008132;28;20527;-66
2021/01/19 08:07:39;;;;;;;7.45;2.50;;;19.20;42.90;;;;;;5007960;28;20029;-65
2021/01/19 08:10:21;;;;;;;5.78;2.85;;;19.20;42.90;;;;;;5007197;28;20084;-65
2021/01/19 08:12:52;;;;;;;6.28;2.90;;;19.20;42.90;;;;;;5004379;28;20056;-66
2021/01/19 08:15:41;;;;;;;7.45;2.33;;;19.20;42.80;;;;;;5006678;28;20034;-65
2021/01/19 08:18:15;;;;;;;5.78;2.67;;;19.30;42.70;;;;;;5006565;28;20026;-66
2021/01/19 08:20:41;;;;;;;4.70;2.30;;;19.30;42.70;;;;;;5007700;28;20034;-65
2021/01/19 08:23:14;;;;;;;5.90;2.28;;;19.40;42.70;;;;;;5007182;28;20025;-66
2021/01/19 08:25:40;;;;;;;4.22;2.03;;;19.30;42.60;;;;;;5006837;28;20036;-65
2021/01/19 08:28:06;;;;;;;5.95;2.60;;;19.40;42.50;;;;;;5006232;28;20026;-65
2021/01/19 08:30:31;;;;;;;5.88;2.40;;;19.40;42.50;;;;;;5007095;28;20480;-64
2021/01/19 08:32:58;;;;;;;5.75;2.50;;;19.50;42.50;;;;;;4989793;28;20129;-65
2021/01/19 08:35:24;;;;;;;3.13;1.60;;;19.50;42.50;;;;;;5006794;28;20029;-65
2021/01/19 08:37:57;;;;;;;3.67;2.15;;;19.50;42.40;;;;;;5004819;28;20050;-65
2021/01/19 08:40:24;;;;;;;4.63;2.00;;;19.50;42.40;;;;;;5005900;28;20121;-64
2021/01/19 08:42:50;;;;;;;4.95;1.90;;;19.50;42.30;;;;;;5005906;28;20062;-64
2021/01/19 08:45:23;;;;;;;4.93;2.30;;;19.60;42.30;;;;;;5007005;28;20072;-66
2021/01/19 08:48:02;;;;;;;4.22;1.90;;;19.60;42.30;;;;;;5006689;28;20084;-65
2021/01/19 08:50:30;;;;;;;4.32;1.70;;;19.60;42.20;;;;;;5006986;28;20065;-64
2021/01/19 08:52:56;;;;;;;3.58;1.80;;;19.60;42.20;;;;;;5005824;28;20049;-66
2021/01/19 08:55:24;;;;;;;4.10;2.05;;;19.70;42.30;;;;;;5005539;28;20420;-67
2021/01/19 08:57:57;;;;;;;4.57;2.28;;;19.70;42.20;;;;;;5006893;28;20040;-64
2021/01/19 09:00:25;;;;;;;4.93;1.80;;;19.70;42.20;;;;;;5006807;28;20037;-66
2021/01/19 09:02:53;;;;;;;4.85;2.00;;;19.70;42.10;;;;;;5006240;28;20022;-65
2021/01/19 09:05:29;;;;;;;3.65;1.80;;;19.70;42.10;;;;;;5005333;28;20034;-65
2021/01/19 09:07:55;;;;;;;4.32;1.80;;;19.70;42.10;;;;;;5006260;28;20028;-62
2021/01/19 09:10:26;;;;;;;2.20;1.42;;;19.70;42.00;;;;;;5007019;28;20042;-65
2021/01/19 09:12:52;;;;;;;2.95;1.60;;;19.70;42.10;;;;;;5006392;28;20030;-65
2021/01/19 09:15:17;;;;;;;3.63;1.88;;;19.70;42.00;;;;;;5006303;28;20057;-66
2021/01/19 09:17:55;;;;;;;2.78;1.55;;;19.70;42.00;;;;;;5004943;28;20038;-64
2021/01/19 09:20:21;;;;;;;3.15;1.92;;;19.70;42.00;;;;;;5006316;28;20084;-66
2021/01/19 09:22:46;;;;;;;3.28;1.92;;;19.70;42.00;;;;;;5004658;28;20022;-64
2021/01/19 09:25:12;;;;;;;2.78;1.65;;;19.70;42.00;;;;;;5006196;28;20122;-66
2021/01/19 09:27:38;;;;;;;2.95;1.55;;;19.70;42.00;;;;;;5006774;28;20053;-66
2021/01/19 09:30:08;;;;;;;3.33;1.90;;;19.70;42.00;;;;;;5004919;28;20038;-65
2021/01/19 09:32:36;;;;;;;4.28;1.40;;;19.70;42.00;;;;;;5005912;28;20104;-66
2021/01/19 09:35:03;;;;;;;1.95;1.30;;;19.70;42.70;;;;;;5004688;28;20026;-65
2021/01/19 09:37:29;;;;;;;4.43;1.80;;;19.60;42.00;;;;;;5003215;28;20460;-66
2021/01/19 09:39:54;;;;;;;3.25;1.10;;;19.70;42.00;;;;;;5006045;28;20116;-65
2021/01/19 09:42:20;;;;;;;3.55;1.60;;;19.70;42.10;;;;;;5005576;28;20129;-65
2021/01/19 09:44:45;;;;;;;1.67;1.20;;;19.60;42.00;;;;;;4988365;28;20055;-65
2021/01/19 09:47:11;;;;;;;2.67;1.33;;;19.60;42.10;;;;;;5005477;28;20073;-68
2021/01/19 09:49:37;;;;;;;3.40;1.50;;;19.60;42.10;;;;;;5004459;28;20026;-65
2021/01/19 09:52:12;;;;;;;3.35;1.60;;;19.60;42.10;;;;;;5004162;28;20555;-65
2021/01/19 09:54:38;;;;;;;2.47;1.15;;;19.60;42.10;;;;;;5005709;28;20088;-65
2021/01/19 09:57:03;;;;;;;3.90;1.52;;;19.60;42.10;;;;;;5005650;28;20097;-66
2021/01/19 09:59:32;;;;;;;2.47;1.30;;;19.60;42.20;;;;;;5005267;28;20038;-66
2021/01/19 10:02:00;;;;;;;2.45;1.33;;;19.60;42.20;;;;;;5005406;28;20087;-66
2021/01/19 10:04:29;;;;;;;1.90;1.20;;;19.50;42.10;;;;;;5004254;28;20030;-64
2021/01/19 10:07:10;;;;;;;1.70;1.20;;;19.60;42.20;;;;;;5004206;28;20030;-65
2021/01/19 10:09:41;;;;;;;1.65;1.25;;;19.50;42.20;;;;;;5043443;28;20387;-57
2021/01/19 10:12:08;;;;;;;1.70;0.90;;;19.50;42.30;;;;;;5047267;28;20072;-60
2021/01/19 10:14:35;;;;;;;2.25;1.50;;;19.50;42.10;;;;;;5060866;28;20029;-60
2021/01/19 10:17:00;;;;;;;3.35;1.17;;;19.50;42.10;;;;;;5060453;28;20432;-60
2021/01/19 10:19:28;;;;;;;3.85;1.25;;;19.50;42.10;;;;;;5060740;28;20098;-59
2021/01/19 10:21:55;;;;;;;1.92;1.10;;;19.50;42.10;;;;;;5060296;28;20052;-61
2021/01/19 10:24:21;;;;;;;1.85;1.00;;;19.50;42.20;;;;;;5060331;28;20380;-59
2021/01/19 10:27:04;;;;;;;2.47;1.10;;;19.50;42.30;;;;;;5059425;28;20025;-60
2021/01/19 10:29:34;;;;;;;2.45;1.30;;;19.50;42.30;;;;;;5060689;28;20086;-61
2021/01/19 10:32:00;;;;;;;1.65;1.00;;;19.40;42.30;;;;;;5060445;28;20293;-60
2021/01/19 10:34:27;;;;;;;1.60;0.85;;;19.40;42.30;;;;;;5060165;28;20223;-62
2021/01/19 10:36:53;;;;;;;1.38;0.90;;;19.40;42.40;;;;;;5060064;28;20029;-60
2021/01/19 10:39:22;;;;;;;2.55;1.15;;;19.40;42.50;;;;;;5060419;28;20029;-60
2021/01/19 10:41:49;;;;;;;2.65;1.33;;;19.30;42.40;;;;;;5042171;28;20029;-60
2021/01/19 10:44:14;;;;;;;3.33;1.10;;;19.40;42.50;;;;;;5060825;28;20029;-61
2021/01/19 10:46:40;;;;;;;2.35;1.33;;;19.30;42.40;;;;;;5025251;28;20086;-60
2021/01/19 10:49:09;;;;;;;2.35;1.10;;;19.30;42.50;;;;;;5042355;28;20033;-60
2021/01/19 10:51:35;;;;;;;2.85;1.10;;;19.30;42.50;;;;;;5060335;28;20040;-61
2021/01/19 10:54:12;;;;;;;2.97;1.17;;;19.30;42.50;;;;;;5061079;28;20040;-62
2021/01/19 10:56:42;;;;;;;1.92;1.20;;;19.30;42.50;;;;;;5059741;28;20065;-58
2021/01/19 10:59:08;;;;;;;2.28;1.23;;;19.30;42.50;;;;;;5041988;28;20219;-59
2021/01/19 11:01:33;;;;;;;1.08;0.80;;;19.20;42.50;;;;;;5042448;28;20102;-62
2021/01/19 11:03:59;;;;;;;1.70;1.30;;;19.20;42.50;;;;;;5059684;28;20052;-58
2021/01/19 11:06:35;;;;;;;2.47;1.17;;;19.20;43.10;;;;;;5059597;28;20068;-61
2021/01/19 11:09:01;;;;;;;1.77;1.05;;;19.20;42.50;;;;;;5041725;28;20041;-58
2021/01/19 11:11:26;;;;;;;3.35;1.40;;;19.20;42.50;;;;;;5042004;28;20032;-60
2021/01/19 11:13:53;;;;;;;1.65;1.00;;;19.20;42.50;;;;;;5059380;28;20044;-60
2021/01/19 11:16:18;;;;;;;2.13;0.98;;;19.20;42.50;;;;;;5059693;28;20571;-61
2021/01/19 11:18:44;;;;;;;1.52;0.90;;;19.20;42.50;;;;;;5058894;28;20044;-59
2021/01/19 11:21:10;;;;;;;1.73;1.05;;;19.20;42.60;;;;;;5045832;28;20092;-60
2021/01/19 11:23:35;;;;;;;2.67;1.00;;;19.20;42.60;;;;;;5028714;28;20057;-58
2021/01/19 11:26:01;;;;;;;1.52;0.90;;;19.20;42.60;;;;;;5045723;28;20118;-57
2021/01/19 11:28:26;;;;;;;2.15;1.05;;;19.20;42.60;;;;;;5045891;28;20029;-59
2021/01/19 11:30:52;;;;;;;0.93;0.80;;;19.20;42.70;;;;;;5046230;28;20032;-59
2021/01/19 11:33:18;;;;;;;2.45;1.05;;;19.20;42.70;;;;;;5045906;28;20036;-59
2021/01/19 11:35:43;;;;;;;1.70;0.95;;;19.20;42.70;;;;;;5045823;28;20032;-59
2021/01/19 11:38:09;;;;;;;2.08;0.80;;;19.20;42.70;;;;;;5044960;28;20033;-61
2021/01/19 11:40:34;;;;;;;2.85;1.00;;;19.20;42.70;;;;;;5045666;28;20037;-55
2021/01/19 11:43:00;;;;;;;2.28;1.10;;;19.20;42.70;;;;;;5011317;28;20036;-56
2021/01/19 11:45:27;;;;;;;1.35;0.70;;;19.20;42.70;;;;;;5045176;28;20029;-59
2021/01/19 11:47:53;;;;;;;1.17;0.75;;;19.10;42.70;;;;;;5044640;28;20029;-54
2021/01/19 11:50:18;;;;;;;1.77;0.95;;;19.20;42.70;;;;;;5045829;28;20036;-57
2021/01/19 11:52:44;;;;;;;2.28;0.88;;;19.20;42.70;;;;;;5045359;28;20505;-59
2021/01/19 11:55:09;;;;;;;2.60;1.05;;;19.10;42.70;;;;;;5044925;28;20025;-59
2021/01/19 11:57:37;;;;;;;1.30;0.65;;;19.10;42.70;;;;;;5026591;28;20043;-57
2021/01/19 12:00:06;;;;;;;1.80;1.05;;;19.10;42.70;;;;;;5045398;28;20025;-55
2021/01/19 12:02:32;;;;;;;1.42;0.88;;;19.10;42.60;;;;;;5045073;28;20044;-57
2021/01/19 12:04:57;;;;;;;1.70;0.82;;;19.10;42.50;;;;;;5045094;28;20029;-60
2021/01/19 12:07:23;;;;;;;2.35;1.23;;;19.10;42.60;;;;;;5026757;28;20413;-63
2021/01/19 12:09:48;;;;;;;1.55;1.00;;;19.10;42.60;;;;;;5045789;28;20492;-58
2021/01/19 12:12:14;;;;;;;1.13;0.70;;;19.10;42.70;;;;;;5044929;28;20025;-58
2021/01/19 12:14:39;;;;;;;1.17;0.80;;;19.10;42.60;;;;;;5044844;28;20021;-60
2021/01/19 12:17:05;;;;;;;3.75;1.52;;;19.10;42.60;;;;;;5044250;28;20040;-57
2021/01/19 12:19:30;;;;;;;1.63;0.80;;;19.10;42.60;;;;;;5044900;28;20021;-56
2021/01/19 12:21:58;;;;;;;1.17;0.80;;;19.10;42.50;;;;;;5044953;28;20025;-57
2021/01/19 12:24:23;;;;;;;1.65;0.80;;;19.10;42.60;;;;;;5022260;28;20132;-57
2021/01/19 12:26:59;;;;;;;1.55;0.90;;;19.10;42.60;;;;;;5044453;28;20112;-57
2021/01/19 12:29:25;;;;;;;;;;;19.10;42.60;;;;;;5027234;28;20087;-63
2021/01/19 12:31:50;;;;;;;1.65;0.80;;;19.10;42.60;;;;;;5044430;28;19979;-56
2021/01/19 12:34:16;;;;;;;1.67;0.98;;;19.10;42.60;;;;;;5044233;28;20640;-57
2021/01/19 12:36:42;;;;;;;1.48;0.70;;;19.10;42.60;;;;;;5044560;28;20049;-59
2021/01/19 12:39:07;;;;;;;2.17;0.85;;;19.10;42.70;;;;;;5026422;28;20087;-59
2021/01/19 12:41:33;;;;;;;1.17;0.85;;;19.00;42.70;;;;;;5044269;28;20116;-57
2021/01/19 12:44:04;;;;;;;1.35;0.70;;;19.00;42.70;;;;;;5043903;28;20083;-58
2021/01/19 12:46:29;;;;;;;2.30;0.63;;;19.00;42.70;;;;;;5044312;28;20453;-57
2021/01/19 12:48:55;;;;;;;1.23;0.68;;;19.00;42.80;;;;;;5044634;28;20033;-60
2021/01/19 12:51:21;;;;;;;2.05;0.98;;;19.00;42.80;;;;;;5044009;28;20056;-60
2021/01/19 12:53:48;;;;;;;1.40;0.70;;;18.90;42.80;;;;;;5038866;28;20090;-55